createdAt,value
2023-01-18T00:02:09.829Z,-28.1
2023-01-18T00:04:11.725Z,-28
2023-01-18T00:06:13.623Z,-28.2
2023-01-18T00:08:15.359Z,-28.5
2023-01-18T00:10:16.948Z,-28.3
2023-01-18T00:12:17.953Z,-28.3
2023-01-18T00:14:19.092Z,-28.5
2023-01-18T00:16:20.859Z,-28.2
2023-01-18T00:18:22.715Z,-28.3
2023-01-18T00:20:24.147Z,-28.2
2023-01-18T00:22:25.575Z,-28.4
2023-01-18T00:24:26.718Z,-28.1
2023-01-18T00:26:28.495Z,-28.1
2023-01-18T00:28:30.358Z,-28.4
2023-01-18T00:30:32.315Z,-28.3
2023-01-18T00:32:33.659Z,-28.2
2023-01-18T00:34:35.061Z,-28.5
2023-01-18T00:36:36.148Z,-28.6
2023-01-18T00:38:37.368Z,-28.2
2023-01-18T00:40:38.988Z,-28.2
2023-01-18T00:44:42.231Z,-28.3
2023-01-18T00:46:43.286Z,-28.4
2023-01-18T00:48:45.307Z,-28.3
2023-01-18T00:50:46.744Z,-28.2
2023-01-18T00:54:50.315Z,-28.3
2023-01-18T00:56:52.325Z,-28.2
2023-01-18T00:58:53.614Z,-28.5
2023-01-18T01:00:54.963Z,-28.5
2023-01-18T01:02:56.711Z,-28.3
2023-01-18T01:04:57.454Z,-28.4
2023-01-18T01:06:59.236Z,-28.2
2023-01-18T01:09:00.793Z,-28.2
2023-01-18T01:11:02.017Z,-28.5
2023-01-18T01:13:04.000Z,-28.5
2023-01-18T01:15:05.072Z,-28.5
2023-01-18T01:17:06.583Z,-28.3
2023-01-18T01:19:08.357Z,-28.4
2023-01-18T01:21:09.446Z,-28.3
2023-01-18T01:23:11.478Z,-28.4
2023-01-18T01:27:14.176Z,-28.2
2023-01-18T01:29:15.853Z,-28.2
2023-01-18T01:31:17.563Z,-28.4
2023-01-18T01:33:18.845Z,-28.3
2023-01-18T01:39:23.135Z,-28.3
2023-01-18T01:41:24.386Z,-28.2
2023-01-18T01:43:25.729Z,-28.3
2023-01-18T01:45:26.919Z,-28.2
2023-01-18T01:47:28.850Z,-28.3
2023-01-18T01:49:30.351Z,-28.4
2023-01-18T01:51:31.655Z,-28.2
2023-01-18T01:53:33.350Z,-28.3
2023-01-18T01:55:34.422Z,-28.4
2023-01-18T01:57:36.300Z,-28.4
2023-01-18T01:59:37.688Z,-28
2023-01-18T02:01:39.188Z,-28.2
2023-01-18T02:03:40.700Z,-28.5
2023-01-18T02:05:42.556Z,-28.4
2023-01-18T02:07:43.812Z,-27.8
2023-01-18T02:09:45.008Z,-28.3
2023-01-18T02:11:46.190Z,-28.4
2023-01-18T02:15:48.976Z,-28.3
2023-01-18T02:17:50.635Z,-28.4
2023-01-18T02:19:51.716Z,-28.3
2023-01-18T02:21:52.785Z,-28.2
2023-01-18T02:23:53.903Z,-28.4
2023-01-18T02:25:55.415Z,-28.2
2023-01-18T02:27:57.226Z,-28.4
2023-01-18T02:29:58.490Z,-28.3
2023-01-18T02:31:59.913Z,-28.2
2023-01-18T02:38:04.685Z,-28.2
2023-01-18T02:40:06.487Z,-28.2
2023-01-18T02:42:07.795Z,-28.3
2023-01-18T02:44:09.313Z,-28.3
2023-01-18T02:46:10.828Z,-28.2
2023-01-18T02:48:12.627Z,-28.2
2023-01-18T02:52:15.977Z,-28.4
2023-01-18T02:54:17.388Z,-28.2
2023-01-18T02:58:19.746Z,-28
2023-01-18T03:02:23.081Z,-28.2
2023-01-18T03:04:24.187Z,-28.1
2023-01-18T03:08:27.773Z,-28.3
2023-01-18T03:10:28.958Z,-27.9
2023-01-18T03:12:30.377Z,-28.2
2023-01-18T03:14:32.179Z,-28.2
2023-01-18T03:18:34.866Z,-28.2
2023-01-18T03:20:36.189Z,-28.3
2023-01-18T03:22:37.946Z,-28.3
2023-01-18T03:24:39.380Z,-28.4
2023-01-18T03:28:42.242Z,-28.3
2023-01-18T03:30:43.532Z,-28.3
2023-01-18T03:34:46.959Z,-28.3
2023-01-18T03:36:48.339Z,-28.3
2023-01-18T03:38:49.721Z,-28.5
2023-01-18T03:40:50.864Z,-28.3
2023-01-18T03:46:54.975Z,-28.4
2023-01-18T03:48:56.815Z,-28.4
2023-01-18T03:50:58.240Z,-28.2
2023-01-18T03:53:00.160Z,-28
2023-01-18T03:55:01.540Z,-28.3
2023-01-18T03:57:03.375Z,-28.1
2023-01-18T03:59:04.732Z,-28.4
2023-01-18T04:01:06.509Z,-28.5
2023-01-18T04:03:08.331Z,-28.3
2023-01-18T04:05:09.844Z,-28.4
2023-01-18T04:07:11.309Z,-28.3
2023-01-18T04:11:14.430Z,-28.3
2023-01-18T04:13:16.312Z,-28.2
2023-01-18T04:15:17.406Z,-28.5
2023-01-18T04:17:19.039Z,-28.4
2023-01-18T04:19:20.900Z,-28.3
2023-01-18T04:21:22.940Z,-28.4
2023-01-18T04:23:24.389Z,-28
2023-01-18T04:25:25.959Z,-28.2
2023-01-18T04:27:27.693Z,-28.4
2023-01-18T04:29:29.073Z,-28.1
2023-01-18T04:30:13.040Z,-28.3
2023-01-18T04:34:15.907Z,-28.5
2023-01-18T04:38:19.907Z,-28.4
2023-01-18T04:40:21.331Z,-28.5
2023-01-18T04:42:22.787Z,-28.2
2023-01-18T04:44:24.481Z,-28.2
2023-01-18T04:46:26.028Z,-28.2
2023-01-18T04:48:27.211Z,-28.2
2023-01-18T04:50:28.698Z,-28.5
2023-01-18T04:52:30.355Z,-28.2
2023-01-18T04:54:32.121Z,-28.5
2023-01-18T04:56:33.196Z,-28.3
2023-01-18T04:58:34.379Z,-28.2
2023-01-18T05:00:36.381Z,-28.4
2023-01-18T05:02:38.074Z,-28.2
2023-01-18T05:04:40.130Z,-28.4
2023-01-18T05:06:41.337Z,-28
2023-01-18T05:10:43.945Z,-28.3
2023-01-18T05:12:45.381Z,-28.5
2023-01-18T05:14:46.724Z,-28.3
2023-01-18T05:16:48.508Z,-28.4
2023-01-18T05:18:49.803Z,-28.3
2023-01-18T05:22:52.707Z,-28.2
2023-01-18T05:24:54.567Z,-28.4
2023-01-18T05:26:55.706Z,-28.3
2023-01-18T05:28:57.348Z,-28.3
2023-01-18T05:30:58.875Z,-28.2
2023-01-18T05:33:00.683Z,-28.1
2023-01-18T05:37:03.458Z,-28.2
2023-01-18T05:39:05.489Z,-28.5
2023-01-18T05:41:06.659Z,-28.4
2023-01-18T05:43:08.413Z,-28.3
2023-01-18T05:45:10.203Z,-28.4
2023-01-18T05:47:11.905Z,-28.1
2023-01-18T05:49:13.582Z,-28
2023-01-18T05:51:14.947Z,-28.5
2023-01-18T05:53:16.216Z,-28.5
2023-01-18T05:55:18.258Z,-28.4
2023-01-18T05:57:20.056Z,-28.4
2023-01-18T05:59:21.729Z,-28.2
2023-01-18T06:01:23.156Z,-28.5
2023-01-18T06:03:24.643Z,-28.3
2023-01-18T06:05:25.984Z,-28.5
2023-01-18T06:07:27.234Z,-28.4
2023-01-18T06:09:29.115Z,-28.3
2023-01-18T06:11:30.884Z,-28.2
2023-01-18T06:13:32.819Z,-28.4
2023-01-18T06:15:34.661Z,-28.3
2023-01-18T06:19:38.600Z,-28.3
2023-01-18T06:21:39.980Z,-28.2
2023-01-18T06:23:41.036Z,-28.5
2023-01-18T06:25:42.140Z,-28.4
2023-01-18T06:27:43.716Z,-28.2
2023-01-18T06:29:45.271Z,-28.2
2023-01-18T06:31:46.789Z,-28.1
2023-01-18T06:33:47.919Z,-28.2
2023-01-18T06:35:49.375Z,-28.3
2023-01-18T06:37:51.061Z,-28.2
2023-01-18T06:41:54.308Z,-28.5
2023-01-18T06:43:56.212Z,-28.5
2023-01-18T06:45:57.791Z,-28.4
2023-01-18T06:48:07.519Z,-28.4
2023-01-18T06:52:02.333Z,-28.3
2023-01-18T06:54:04.238Z,-28.4
2023-01-18T06:56:05.946Z,-28.2
2023-01-18T06:58:07.523Z,-28.3
2023-01-18T07:04:11.937Z,-28.3
2023-01-18T07:06:13.160Z,-28.4
2023-01-18T07:08:14.475Z,-28
2023-01-18T07:10:16.694Z,-28.2
2023-01-18T07:12:17.347Z,-28.1
2023-01-18T07:14:18.855Z,-28.2
2023-01-18T07:18:21.915Z,-27.8
2023-01-18T07:20:23.335Z,-28.2
2023-01-18T07:22:24.671Z,-28.4
2023-01-18T07:24:26.490Z,-28.5
2023-01-18T07:26:27.663Z,-28
2023-01-18T07:28:28.891Z,-28.4
2023-01-18T07:30:30.480Z,-28.5
2023-01-18T07:32:31.995Z,-28.4
2023-01-18T07:34:33.797Z,-28.3
2023-01-18T07:36:34.924Z,-28
2023-01-18T07:38:36.241Z,-28
2023-01-18T07:40:37.388Z,-28.5
2023-01-18T07:42:38.849Z,-28.5
2023-01-18T07:44:40.516Z,-28.4
2023-01-18T07:46:41.888Z,-28.1
2023-01-18T07:48:43.023Z,-28.3
2023-01-18T07:50:44.330Z,-28.3
2023-01-18T07:52:46.068Z,-28.2
2023-01-18T07:54:47.680Z,-28.3
2023-01-18T07:56:49.496Z,-28.3
2023-01-18T07:58:50.726Z,-28.3
2023-01-18T08:00:52.100Z,-28.5
2023-01-18T08:02:53.412Z,-28.5
2023-01-18T08:04:54.418Z,-28.5
2023-01-18T08:06:55.545Z,-28.2
2023-01-18T08:08:57.157Z,-28.3
2023-01-18T08:10:58.467Z,-28.3
2023-01-18T08:13:00.112Z,-28.2
2023-01-18T08:15:01.199Z,-28.2
2023-01-18T08:19:04.789Z,-28.2
2023-01-18T08:21:06.355Z,-28.2
2023-01-18T08:23:07.587Z,-28.4
2023-01-18T08:25:09.047Z,-28.2
2023-01-18T08:27:10.552Z,-28.4
2023-01-18T08:29:12.368Z,-28.4
2023-01-18T08:35:16.560Z,-28.4
2023-01-18T08:37:18.617Z,-28.3
2023-01-18T08:39:20.524Z,-28.3
2023-01-18T08:41:22.004Z,-28.4
2023-01-18T08:43:23.646Z,-28.5
2023-01-18T08:45:25.276Z,-28.4
2023-01-18T08:47:26.971Z,-28.5
2023-01-18T08:49:28.384Z,-28.2
2023-01-18T08:51:30.067Z,-28.4
2023-01-18T08:53:31.956Z,-28
2023-01-18T08:55:33.488Z,-28.2
2023-01-18T08:57:35.345Z,-28.3
2023-01-18T09:01:39.287Z,-28
2023-01-18T09:03:40.637Z,-28.3
2023-01-18T09:05:42.246Z,-28.3
2023-01-18T09:07:44.173Z,-28.4
2023-01-18T09:09:45.475Z,-28.5
2023-01-18T09:11:46.626Z,-28.1
2023-01-18T09:14:00.117Z,-28.3
2023-01-18T09:15:49.758Z,-28.3
2023-01-18T09:17:51.665Z,-28.4
2023-01-18T09:19:53.214Z,-28.3
2023-01-18T09:21:55.036Z,-28.4
2023-01-18T09:23:56.662Z,-28.2
2023-01-18T09:25:58.683Z,-28.2
2023-01-18T09:27:59.860Z,-28.4
2023-01-18T09:30:01.679Z,-28.3
2023-01-18T09:32:03.273Z,-28.4
2023-01-18T09:34:18.279Z,-28
2023-01-18T09:36:06.721Z,-28.4
2023-01-18T09:38:08.179Z,-28.3
2023-01-18T09:40:09.422Z,-26.7
2023-01-18T09:44:12.511Z,-26.6
2023-01-18T09:46:14.365Z,-26.2
2023-01-18T09:48:15.613Z,-26.5
2023-01-18T09:50:17.612Z,-26.6
2023-01-18T09:52:18.692Z,-22.4
2023-01-18T09:54:20.208Z,-19
2023-01-18T09:56:22.068Z,-17.1
2023-01-18T09:58:23.554Z,-16.4
2023-01-18T10:00:25.024Z,-17.4
2023-01-18T10:02:26.310Z,-21.7
2023-01-18T10:04:27.449Z,-21.4
2023-01-18T10:06:29.122Z,-19.2
2023-01-18T10:08:31.113Z,-19.9
2023-01-18T10:10:32.206Z,-18
2023-01-18T10:12:33.980Z,-8.5
2023-01-18T10:14:35.222Z,18.2
2023-01-18T10:16:37.232Z,-6.4
2023-01-18T10:20:40.222Z,-13.7
2023-01-18T10:22:41.734Z,-16.7
2023-01-18T10:24:43.477Z,-15.6
2023-01-18T10:26:45.100Z,-12.8
2023-01-18T10:28:46.979Z,-10.8
2023-01-18T10:30:48.681Z,-9.39
2023-01-18T10:32:50.506Z,-8.6
2023-01-18T10:34:52.319Z,-10.3
2023-01-18T10:36:53.720Z,-10.8
2023-01-18T10:40:57.462Z,-13.9
2023-01-18T10:42:59.400Z,-13.6
2023-01-18T10:45:00.251Z,-16
2023-01-18T10:47:01.747Z,-18.1
2023-01-18T10:49:03.686Z,-19.7
2023-01-18T10:51:05.316Z,-18.2
2023-01-18T10:53:06.804Z,-16.79
2023-01-18T10:55:08.469Z,-19.5
2023-01-18T10:57:10.180Z,-17.2
2023-01-18T10:59:11.587Z,-16.9
2023-01-18T11:03:14.900Z,-17
2023-01-18T11:05:16.089Z,-15.8
2023-01-18T11:07:17.881Z,-12.8
2023-01-18T11:09:19.516Z,-13
2023-01-18T11:11:20.998Z,-10.5
2023-01-18T11:13:22.245Z,14.9
2023-01-18T11:15:23.692Z,15.5
2023-01-18T11:20:11.037Z,15.6
2023-01-18T11:22:12.207Z,16.7
2023-01-18T11:24:13.922Z,17.1
2023-01-18T11:28:16.843Z,15.5
2023-01-18T11:30:18.478Z,14.6
2023-01-18T11:34:22.032Z,19.29
2023-01-18T11:36:23.387Z,20.9
2023-01-18T11:38:24.972Z,17.9
2023-01-18T11:40:26.307Z,16.29
2023-01-18T11:46:31.109Z,14.7
2023-01-18T11:48:32.968Z,15.1
2023-01-18T11:50:34.624Z,15.3
2023-01-18T11:52:36.171Z,14.2
2023-01-18T11:54:38.184Z,12.6
2023-01-18T11:56:39.594Z,11.3
2023-01-18T11:58:40.596Z,-17.1
2023-01-18T12:00:42.550Z,-18.7
2023-01-18T12:02:43.972Z,-20.7
2023-01-18T12:04:45.522Z,-19.7
2023-01-18T12:06:46.728Z,-18.9
2023-01-18T12:10:50.018Z,-15.4
2023-01-18T12:12:51.307Z,11.4
2023-01-18T12:16:54.983Z,12.1
2023-01-18T12:18:56.014Z,12.9
2023-01-18T12:20:57.175Z,12.6
2023-01-18T12:22:58.404Z,-15.1
2023-01-18T12:24:59.995Z,-17.7
2023-01-18T12:29:02.931Z,-19.6
2023-01-18T12:33:06.023Z,-18.1
2023-01-18T12:35:19.162Z,-17
2023-01-18T12:37:08.942Z,11.3
2023-01-18T12:39:09.980Z,12.1
2023-01-18T12:43:13.085Z,12.4
2023-01-18T12:45:14.129Z,12
2023-01-18T12:47:15.757Z,13.1
2023-01-18T12:49:16.855Z,17.29
2023-01-18T12:51:18.227Z,16.1
2023-01-18T12:53:19.484Z,15.6
2023-01-18T12:55:21.158Z,15.5
2023-01-18T12:57:22.246Z,14.4
2023-01-18T12:59:24.066Z,14.9
2023-01-18T13:01:25.498Z,16.2
2023-01-18T13:03:26.992Z,16.4
2023-01-18T13:05:28.308Z,14.2
2023-01-18T13:07:30.030Z,12.6
2023-01-18T13:09:31.766Z,11.4
2023-01-18T13:11:33.435Z,11.2
2023-01-18T13:13:35.018Z,11.5
2023-01-18T13:15:36.805Z,13.6
2023-01-18T13:17:37.955Z,10.9
2023-01-18T13:19:39.524Z,9
2023-01-18T13:21:40.929Z,-17.9
2023-01-18T13:23:42.425Z,-17.9
2023-01-18T13:25:43.812Z,-20.4
2023-01-18T13:27:45.674Z,-21.4
2023-01-18T13:29:47.362Z,-22.1
2023-01-18T13:31:49.036Z,-23.1
2023-01-18T13:33:51.014Z,-24.7
2023-01-18T13:35:52.050Z,-24.7
2023-01-18T13:37:55.697Z,-25.5
2023-01-18T13:43:58.270Z,-26.1
2023-01-18T13:46:00.268Z,-26.6
2023-01-18T13:48:02.249Z,-27.1
2023-01-18T13:50:03.384Z,-27.8
2023-01-18T13:52:04.749Z,-28.5
2023-01-18T13:54:05.825Z,-28.2
2023-01-18T13:56:07.024Z,-28.5
2023-01-18T13:58:08.233Z,-28.2
2023-01-18T14:00:09.271Z,-28.3
2023-01-18T14:04:12.412Z,-28.2
2023-01-18T14:06:13.747Z,-28.4
2023-01-18T14:08:15.634Z,-28.3
2023-01-18T14:10:17.212Z,-27.7
2023-01-18T14:14:20.434Z,-26.1
2023-01-18T14:16:21.774Z,-26
2023-01-18T14:18:23.247Z,-26.8
2023-01-18T14:20:24.912Z,-26.7
2023-01-18T14:26:29.824Z,-28.3
2023-01-18T14:28:31.253Z,-28.2
2023-01-18T14:30:32.878Z,-28.3
2023-01-18T14:32:34.811Z,-28.5
2023-01-18T14:34:36.582Z,-28.2
2023-01-18T14:36:37.853Z,-28.2
2023-01-18T14:40:40.700Z,-28.4
2023-01-18T14:42:42.605Z,-28.2
2023-01-18T14:44:57.188Z,-28.2
2023-01-18T14:46:46.381Z,-28.1
2023-01-18T14:52:49.329Z,-28.3
2023-01-18T14:54:51.304Z,-28
2023-01-18T14:56:52.800Z,-28.2
2023-01-18T14:58:54.647Z,-28.3
2023-01-18T15:00:56.034Z,-28.3
2023-01-18T15:02:58.214Z,-28.3
2023-01-18T15:07:00.675Z,-28.4
2023-01-18T15:09:02.643Z,-28.3
2023-01-18T15:11:04.154Z,-28.5
2023-01-18T15:13:05.334Z,-28.3
2023-01-18T15:17:08.045Z,-28.5
2023-01-18T15:19:09.204Z,-28.5
2023-01-18T15:21:10.598Z,-28.2
2023-01-18T15:23:11.980Z,-28.3
2023-01-18T15:25:13.143Z,-28.3
2023-01-18T15:27:15.038Z,-28.4
2023-01-18T15:29:16.436Z,-28.4
2023-01-18T15:31:18.202Z,-28.2
2023-01-18T15:35:20.588Z,-28.5
2023-01-18T15:39:23.163Z,-28.4
2023-01-18T15:41:24.935Z,-28.3
2023-01-18T15:43:26.290Z,-28.4
2023-01-18T15:45:27.961Z,-28.3
2023-01-18T15:49:31.681Z,-28.2
2023-01-18T15:51:33.033Z,-28.3
2023-01-18T15:53:34.507Z,-28.1
2023-01-18T15:55:35.727Z,-28.4
2023-01-18T15:57:37.470Z,-28
2023-01-18T15:59:39.248Z,-28.2
2023-01-18T16:01:41.120Z,-28.4
2023-01-18T16:03:42.334Z,-28.3
2023-01-18T16:05:44.016Z,-28.4
2023-01-18T16:07:45.704Z,-28.3
2023-01-18T16:09:47.723Z,-28.5
2023-01-18T16:11:48.806Z,-28.3
2023-01-18T16:13:50.671Z,-28.3
2023-01-18T16:15:52.455Z,-28.4
2023-01-18T16:17:53.969Z,-28
2023-01-18T16:21:57.021Z,-28.4
2023-01-18T16:23:58.845Z,-28.3
2023-01-18T16:26:00.145Z,-28.1
2023-01-18T16:28:02.381Z,-28.4
2023-01-18T16:34:06.743Z,-28.6
2023-01-18T16:36:08.449Z,-28.4
2023-01-18T16:38:09.711Z,-28.5
2023-01-18T16:40:11.490Z,-28.6
2023-01-18T16:42:12.650Z,-28.3
2023-01-18T16:44:14.456Z,-28.4
2023-01-18T16:46:15.735Z,-28.4
2023-01-18T16:48:17.168Z,-28.2
2023-01-18T16:50:18.713Z,-28
2023-01-18T16:52:20.160Z,-28.6
2023-01-18T16:54:21.445Z,-28.4
2023-01-18T16:56:22.960Z,-28.4
2023-01-18T16:58:24.777Z,-28.3
2023-01-18T17:00:26.522Z,-28.4
2023-01-18T17:02:27.877Z,-28.4
2023-01-18T17:04:29.609Z,-28.3
2023-01-18T17:06:30.913Z,-28.4
2023-01-18T17:08:32.297Z,-28.7
2023-01-18T17:10:34.323Z,-28.2
2023-01-18T17:12:36.000Z,-28.4
2023-01-18T17:16:38.867Z,-28.5
2023-01-18T17:18:40.006Z,-28.5
2023-01-18T17:20:41.700Z,-28.3
2023-01-18T17:22:42.870Z,-28.4
2023-01-18T17:24:43.986Z,-28.4
2023-01-18T17:26:45.711Z,-28
2023-01-18T17:32:51.191Z,-28.3
2023-01-18T17:34:52.944Z,-28.3
2023-01-18T17:36:54.383Z,-28.2
2023-01-18T17:38:55.954Z,-28.3
2023-01-18T17:40:57.719Z,-28.4
2023-01-18T17:42:59.565Z,-28.4
2023-01-18T17:45:00.624Z,-28.3
2023-01-18T17:47:02.362Z,-28.4
2023-01-18T17:49:03.543Z,-28.3
2023-01-18T17:53:06.960Z,-28.4
2023-01-18T17:55:08.396Z,-28.2
2023-01-18T17:57:09.624Z,-28.3
2023-01-18T17:59:11.399Z,-28.6
2023-01-18T18:01:12.757Z,-28.4
2023-01-18T18:01:56.591Z,-28.6
2023-01-18T18:03:58.581Z,-28.2
2023-01-18T18:10:02.819Z,-28.5
2023-01-18T18:12:04.763Z,-28.3
2023-01-18T18:14:05.910Z,-28.4
2023-01-18T18:16:10.071Z,-28.3
2023-01-18T18:18:18.357Z,-28.5
2023-01-18T18:20:10.993Z,-28.5
2023-01-18T18:24:13.250Z,-28
2023-01-18T18:26:14.755Z,-28.5
2023-01-18T18:28:16.724Z,-28.4
2023-01-18T18:30:18.598Z,-28.4
2023-01-18T18:32:20.626Z,-28.4
2023-01-18T18:34:22.366Z,-28.6
2023-01-18T18:36:23.758Z,-28.2
2023-01-18T18:40:26.487Z,-28.5
2023-01-18T18:42:27.733Z,-28.3
2023-01-18T18:44:29.507Z,-28.6
2023-01-18T18:46:30.898Z,-28.4
2023-01-18T18:50:33.778Z,-28.4
2023-01-18T18:52:35.499Z,-28.4
2023-01-18T18:54:37.390Z,-28.3
2023-01-18T18:56:38.648Z,-28.4
2023-01-18T18:58:40.287Z,-28.3
2023-01-18T19:00:41.876Z,-28.4
2023-01-18T19:02:43.452Z,-28.2
2023-01-18T19:06:46.640Z,-28.3
2023-01-18T19:08:48.614Z,-28.4
2023-01-18T19:10:50.369Z,-28.3
2023-01-18T19:12:51.981Z,-28.3
2023-01-18T19:16:54.975Z,-28.2
2023-01-18T19:18:56.353Z,-28.4
2023-01-18T19:20:57.437Z,-28.3
2023-01-18T19:22:59.730Z,-28.4
2023-01-18T19:25:02.762Z,-28.2
2023-01-18T19:27:02.683Z,-28.3
2023-01-18T19:29:04.685Z,-28.2
2023-01-18T19:35:10.601Z,-28.5
2023-01-18T19:37:12.118Z,-28.5
2023-01-18T19:39:21.641Z,-28.2
2023-01-18T19:41:14.772Z,-28.3
2023-01-18T19:43:16.721Z,-28.3
2023-01-18T19:45:27.198Z,-28.3
2023-01-18T19:49:21.666Z,-28.4
2023-01-18T19:51:23.514Z,-28.4
2023-01-18T19:53:25.387Z,-28.3
2023-01-18T19:55:26.950Z,-28.2
2023-01-18T19:59:30.451Z,-28.5
2023-01-18T20:01:36.649Z,-28.2
2023-01-18T20:03:33.763Z,-28.4
2023-01-18T20:05:34.235Z,-28.2
2023-01-18T20:07:35.594Z,-28.2
2023-01-18T20:09:43.022Z,-28.5
2023-01-18T20:11:38.779Z,-28.4
2023-01-18T20:13:40.685Z,-28.5
2023-01-18T20:15:42.100Z,-28.3
2023-01-18T20:17:43.857Z,-28.3
2023-01-18T20:19:45.661Z,-28.6
2023-01-18T20:21:47.480Z,-28.3
2023-01-18T20:23:49.615Z,-28.4
2023-01-18T20:25:50.719Z,-28.4
2023-01-18T20:27:51.908Z,-28.3
2023-01-18T20:29:53.612Z,-28.6
2023-01-18T20:32:02.150Z,-28.2
2023-01-18T20:33:57.578Z,-28.2
2023-01-18T20:35:59.057Z,-28.3
2023-01-18T20:38:00.299Z,-28.5
2023-01-18T20:40:02.115Z,-28.3
2023-01-18T20:44:04.996Z,-28.3
2023-01-18T20:48:07.471Z,-28.3
2023-01-18T20:50:09.327Z,-28.3
2023-01-18T20:52:10.608Z,-28.2
2023-01-18T20:54:12.370Z,-28.4
2023-01-18T20:58:15.662Z,-28.1
2023-01-18T21:00:19.133Z,-28.6
2023-01-18T21:02:19.357Z,-26.7
2023-01-18T21:04:20.546Z,-26.6
2023-01-18T21:06:22.412Z,-28.3
2023-01-18T21:08:24.159Z,-28.5
2023-01-18T21:10:25.532Z,-28.3
2023-01-18T21:12:27.482Z,-28.4
2023-01-18T21:14:29.198Z,-28.1
2023-01-18T21:16:30.900Z,-28.3
2023-01-18T21:18:32.126Z,-28.2
2023-01-18T21:20:33.973Z,-28.2
2023-01-18T21:22:35.995Z,-28
2023-01-18T21:26:39.442Z,-28.4
2023-01-18T21:30:42.014Z,-28.3
2023-01-18T21:32:44.129Z,-27.9
2023-01-18T21:34:46.205Z,-26.5
2023-01-18T21:36:48.203Z,-28.1
2023-01-18T21:38:50.116Z,-28.2
2023-01-18T21:40:52.032Z,-27.9
2023-01-18T21:42:53.612Z,-28.4
2023-01-18T21:44:54.757Z,-28.3
2023-01-18T21:46:55.940Z,-28.4
2023-01-18T21:48:57.208Z,-28.3
2023-01-18T21:50:58.968Z,-28.2
2023-01-18T21:53:00.509Z,-28.5
2023-01-18T21:55:01.744Z,-28.1
2023-01-18T21:57:03.181Z,-28.2
2023-01-18T21:59:04.954Z,-28.3
2023-01-18T22:01:06.341Z,-28.3
2023-01-18T22:03:07.734Z,-28.1
2023-01-18T22:05:09.515Z,-28.4
2023-01-18T22:07:10.922Z,-28.3
2023-01-18T22:09:12.428Z,-28.2
2023-01-18T22:13:15.931Z,-28.3
2023-01-18T22:15:17.813Z,-28.3
2023-01-18T22:17:19.205Z,-28.3
2023-01-18T22:19:20.476Z,-28.2
2023-01-18T22:23:23.984Z,-28.4
2023-01-18T22:25:25.655Z,-28.2
2023-01-18T22:27:27.175Z,-28.4
2023-01-18T22:29:28.905Z,-28
2023-01-18T22:31:30.790Z,-28.3
2023-01-18T22:33:32.274Z,-28.2
2023-01-18T22:35:33.472Z,-28.3
2023-01-18T22:37:34.880Z,-28.2
2023-01-18T22:39:36.315Z,-28.2
2023-01-18T22:41:37.588Z,-28.3
2023-01-18T22:43:39.311Z,-28
2023-01-18T22:45:41.255Z,-28.1
2023-01-18T22:47:43.195Z,-28.4
2023-01-18T22:49:44.677Z,-28.3
2023-01-18T22:51:46.187Z,-28.2
2023-01-18T22:55:49.735Z,-28.4
2023-01-18T22:57:51.082Z,-28.5
2023-01-18T22:59:52.460Z,-28.3
2023-01-18T23:01:53.984Z,-28.2
2023-01-18T23:07:59.082Z,-28.3
2023-01-18T23:10:00.204Z,-28.3
2023-01-18T23:12:01.401Z,-28.4
2023-01-18T23:14:02.966Z,-28.5
2023-01-18T23:16:05.179Z,-28
2023-01-18T23:18:06.702Z,-27.9
2023-01-18T23:22:09.983Z,-28
2023-01-18T23:24:11.823Z,-28
2023-01-18T23:26:13.193Z,-28
2023-01-18T23:28:14.697Z,-28.4
2023-01-18T23:30:16.302Z,-28
2023-01-18T23:32:18.295Z,-28.3
2023-01-18T23:34:20.194Z,-28
2023-01-18T23:36:22.257Z,-28.4
2023-01-18T23:38:24.136Z,-28.3
2023-01-18T23:40:25.540Z,-28.2
2023-01-18T23:42:27.130Z,-28.5
2023-01-18T23:44:28.392Z,-28.3
2023-01-18T23:46:29.714Z,-28.4
2023-01-18T23:48:30.944Z,-28.3
2023-01-18T23:50:32.578Z,-28.2
2023-01-18T23:52:34.358Z,-28.1
2023-01-18T23:54:36.121Z,-28.2
2023-01-18T23:56:37.399Z,-28.1
2023-01-18T23:58:39.116Z,-28.3
